Airfield :
LOGIN :

Register | Disclaimer

   EN    FR    IT 

 










Legend :    VFR   Marginal VFR   IFR   Intensive IFR   Very Intensive IFR
Visi :
Ceiling :
>= 8 km
>= 3000ft
5 to 8 km
1000 to 3000 ft
1500m to 5 km
500 to 1000 ft
800 to 1500m
200 to 500 ft
< 800m
< 200 ft
Symbols :   Thunderstorms  Fog  Heavy snow  Heavy precipitations  Wind > 20 kt
SIGMETs :     Misc.  Thunderstorms  Icing  Turbulence  Mountain Waves  Volcanic Ashes






- Airport Elevation : 416 ft
- IATA code : OVD


LEAS - Asturias

CURRENT METAR :
  • 021630Z 05007KT 360V090 9999 FEW019 SCT055 11/07 Q1019 NOSIG

EXPIRED METARs :
  • 021600Z 04006KT 340V100 9999 FEW032 SCT045 BKN057 12/07 Q1019 NOSIG
  • 021530Z 05006KT 360V100 9999 FEW034 BKN045 12/06 Q1018 NOSIG
  • 021500Z 04006KT 340V090 9999 FEW034 BKN042 13/07 Q1018 NOSIG
  • 021430Z 05008KT 350V100 9999 FEW020 BKN040 13/07 Q1018 NOSIG
  • 021400Z 05009KT 010V100 9999 FEW040 BKN050 13/08 Q1018 NOSIG

TAF TAF LEAS
Valid from the 02 at 15:00 until the 03 at 15:00 UTC


021400Z 0215/0315 07009KT 9999 SCT030 BKN050 TX12/0215Z TN08/0305Z
PROB30
TEMPO 0300/0306 BKN014



MET'MAP, your aeronautical weather chart ! - Copyright ORBIFLY December 2007 - Disclaimer

ORBIFLY MET'MAP TEAM :

Programming & Development : Alexandra Zaïnal
Concept & original design : Baudouin d'Aumeries
Assistance for programming : Marc-Olivier Méhu
Technical & hardware support : Manuel Goepfert

Contact : metmap@orbifly.com




SOURCES & CREDITS :

   NOAA